createdAt,value
2016-02-29T00:00:24.184Z,0
2016-02-29T00:01:24.139Z,0
2016-02-29T00:02:24.126Z,0
2016-02-29T00:03:24.098Z,0
2016-02-29T00:04:24.115Z,0
2016-02-29T00:05:24.040Z,0
2016-02-29T00:06:24.043Z,0
2016-02-29T00:07:23.998Z,0
2016-02-29T00:08:23.986Z,0
2016-02-29T00:09:23.958Z,0
2016-02-29T00:10:23.976Z,0
2016-02-29T00:11:23.901Z,0
2016-02-29T00:12:23.872Z,0
2016-02-29T00:13:23.844Z,0
2016-02-29T00:14:23.815Z,0
2016-02-29T00:15:23.802Z,0
2016-02-29T00:16:23.758Z,0
2016-02-29T00:17:23.745Z,0
2016-02-29T00:18:23.717Z,0
2016-02-29T00:19:23.688Z,0
2016-02-29T00:20:23.659Z,0
2016-02-29T00:21:23.646Z,0
2016-02-29T00:22:23.618Z,0
2016-02-29T00:23:23.808Z,0
2016-02-29T00:24:23.404Z,0
2016-02-29T00:25:23.594Z,0
2016-02-29T00:26:23.518Z,0
2016-02-29T00:27:23.491Z,0
2016-02-29T00:28:23.462Z,0
2016-02-29T00:29:23.433Z,0
2016-02-29T00:30:23.410Z,0
2016-02-29T00:31:23.397Z,0
2016-02-29T00:32:23.384Z,0
2016-02-29T00:33:23.386Z,0
2016-02-29T00:34:23.295Z,0
2016-02-29T00:35:23.283Z,0
2016-02-29T00:36:23.269Z,0
2016-02-29T00:37:23.241Z,0
2016-02-29T00:38:23.212Z,0
2016-02-29T00:39:23.449Z,0
2016-02-29T00:40:23.155Z,0
2016-02-29T00:41:23.142Z,0
2016-02-29T00:42:23.098Z,0
2016-02-29T00:43:23.085Z,0
2016-02-29T00:44:23.057Z,0
2016-02-29T00:45:23.044Z,0
2016-02-29T00:46:23.015Z,0
2016-02-29T00:47:23.018Z,0
2016-02-29T00:48:22.974Z,0
2016-02-29T00:49:22.960Z,0
2016-02-29T00:50:22.901Z,0
2016-02-29T00:51:22.919Z,0
2016-02-29T00:52:22.859Z,0
2016-02-29T00:53:22.831Z,0
2016-02-29T00:54:22.802Z,0
2016-02-29T00:55:22.804Z,0
2016-02-29T00:56:22.792Z,0
2016-02-29T00:57:22.732Z,0
2016-02-29T00:58:22.720Z,0
2016-02-29T00:59:22.690Z,0
2016-02-29T01:00:22.662Z,0
2016-02-29T01:01:22.633Z,0
2016-02-29T01:02:22.605Z,0
2016-02-29T01:03:22.608Z,0
2016-02-29T01:04:22.548Z,0
2016-02-29T01:05:22.550Z,0
2016-02-29T01:06:22.506Z,0
2016-02-29T01:07:22.478Z,0
2016-02-29T01:08:22.464Z,0
2016-02-29T01:09:22.436Z,0
2016-02-29T01:10:22.438Z,0
2016-02-29T01:11:22.394Z,0
2016-02-29T01:12:22.350Z,0
2016-02-29T01:13:22.338Z,0
2016-02-29T01:14:22.325Z,0
2016-02-29T01:15:22.280Z,0
2016-02-29T01:16:22.252Z,0
2016-02-29T01:17:22.224Z,0
2016-02-29T01:18:22.195Z,0
2016-02-29T01:19:22.197Z,0
2016-02-29T01:20:22.153Z,0
2016-02-29T01:21:22.125Z,0
2016-02-29T01:22:22.112Z,0
2016-02-29T01:23:22.083Z,0
2016-02-29T01:24:22.055Z,0
2016-02-29T01:25:22.292Z,0
2016-02-29T01:26:22.091Z,0
2016-02-29T01:27:21.969Z,0
2016-02-29T01:28:21.957Z,0
2016-02-29T01:29:21.942Z,0
2016-02-29T01:30:22.039Z,0
2016-02-29T01:31:21.886Z,0
2016-02-29T01:32:21.873Z,0
2016-02-29T01:33:21.844Z,0
2016-02-29T01:34:21.785Z,0
2016-02-29T01:35:21.803Z,0
2016-02-29T01:36:21.743Z,0
2016-02-29T01:37:21.715Z,0
2016-02-29T01:38:21.702Z,0
2016-02-29T01:39:21.672Z,0
2016-02-29T01:40:21.660Z,0
2016-02-29T01:41:21.522Z,0
2016-02-29T01:42:21.619Z,0
2016-02-29T01:43:21.558Z,0
2016-02-29T01:44:21.561Z,0
2016-02-29T01:45:21.517Z,0
2016-02-29T01:46:21.536Z,0
2016-02-29T01:47:21.476Z,0
2016-02-29T01:48:21.463Z,0
2016-02-29T01:49:21.419Z,0
2016-02-29T01:50:21.234Z,0
2016-02-29T01:51:21.362Z,0
2016-02-29T01:52:21.349Z,0
2016-02-29T01:53:21.321Z,0
2016-02-29T01:54:21.292Z,0
2016-02-29T01:55:21.263Z,0
2016-02-29T01:56:21.266Z,0
2016-02-29T01:57:21.222Z,0
2016-02-29T01:58:21.209Z,0
2016-02-29T01:59:21.165Z,0
2016-02-29T02:00:21.149Z,0
2016-02-29T02:01:21.106Z,0
2016-02-29T02:02:21.047Z,0
2016-02-29T02:03:21.018Z,0
2016-02-29T02:04:20.975Z,0
2016-02-29T02:05:21.167Z,0
2016-02-29T02:06:20.914Z,0
2016-02-29T02:07:20.881Z,0
2016-02-29T02:08:20.847Z,0
2016-02-29T02:09:20.813Z,0
2016-02-29T02:10:20.795Z,0
2016-02-29T02:11:20.765Z,0
2016-02-29T02:12:20.750Z,0
2016-02-29T02:13:20.703Z,0
2016-02-29T02:14:20.689Z,0
2016-02-29T02:15:20.643Z,0
2016-02-29T02:16:20.848Z,0
2016-02-29T02:17:20.600Z,0
2016-02-29T02:18:20.602Z,0
2016-02-29T02:19:20.540Z,0
2016-02-29T02:20:20.528Z,0
2016-02-29T02:21:20.545Z,0
2016-02-29T02:22:20.471Z,0
2016-02-29T02:23:20.442Z,0
2016-02-29T02:24:20.414Z,0
2016-02-29T02:25:20.417Z,0
2016-02-29T02:26:20.387Z,0
2016-02-29T02:27:20.344Z,0
2016-02-29T02:28:20.314Z,0
2016-02-29T02:29:20.286Z,0
2016-02-29T02:30:20.272Z,0
2016-02-29T02:31:20.245Z,0
2016-02-29T02:32:20.467Z,0
2016-02-29T02:33:20.203Z,0
2016-02-29T02:34:20.175Z,0
2016-02-29T02:35:20.130Z,0
2016-02-29T02:36:20.118Z,0
2016-02-29T02:37:20.089Z,0
2016-02-29T02:38:20.060Z,0
2016-02-29T02:39:20.047Z,0
2016-02-29T02:40:20.004Z,0
2016-02-29T02:41:19.990Z,0
2016-02-29T02:42:19.962Z,0
2016-02-29T02:43:19.918Z,0
2016-02-29T02:44:19.905Z,0
2016-02-29T02:45:19.876Z,0
2016-02-29T02:46:19.879Z,0
2016-02-29T02:47:19.835Z,0
2016-02-29T02:48:19.806Z,0
2016-02-29T02:49:19.777Z,0
2016-02-29T02:50:19.765Z,0
2016-02-29T02:51:19.736Z,0
2016-02-29T02:52:19.707Z,0
2016-02-29T02:53:19.679Z,0
2016-02-29T02:54:19.650Z,0
2016-02-29T02:55:19.653Z,0
2016-02-29T02:56:19.609Z,0
2016-02-29T02:57:19.595Z,0
2016-02-29T02:58:19.553Z,0
2016-02-29T02:59:19.570Z,0
2016-02-29T03:00:19.526Z,0
2016-02-29T03:01:19.481Z,0
2016-02-29T03:02:19.453Z,0
2016-02-29T03:03:19.441Z,0
2016-02-29T03:04:19.397Z,0
2016-02-29T03:05:19.399Z,0
2016-02-29T03:06:19.355Z,0
2016-02-29T03:07:19.342Z,0
2016-02-29T03:08:19.297Z,0
2016-02-29T03:09:19.269Z,0
2016-02-29T03:10:19.241Z,0
2016-02-29T03:11:19.243Z,0
2016-02-29T03:12:19.199Z,0
2016-02-29T03:13:19.171Z,0
2016-02-29T03:14:19.188Z,0
2016-02-29T03:15:19.113Z,0
2016-02-29T03:16:19.085Z,0
2016-02-29T03:17:19.072Z,0
2016-02-29T03:18:19.246Z,0
2016-02-29T03:19:19.030Z,0
2016-02-29T03:20:19.017Z,0
2016-02-29T03:21:18.989Z,0
2016-02-29T03:22:18.959Z,0
2016-02-29T03:23:18.963Z,0
2016-02-29T03:24:18.903Z,0
2016-02-29T03:25:18.906Z,0
2016-02-29T03:26:18.845Z,0
2016-02-29T03:27:18.801Z,0
2016-02-29T03:28:18.789Z,0
2016-02-29T03:29:18.761Z,0
2016-02-29T03:30:18.748Z,0
2016-02-29T03:31:18.719Z,0
2016-02-29T03:32:18.690Z,0
2016-02-29T03:33:18.661Z,0
2016-02-29T03:34:18.650Z,0
2016-02-29T03:35:18.620Z,0
2016-02-29T03:36:18.592Z,0
2016-02-29T03:37:18.547Z,0
2016-02-29T03:38:18.535Z,0
2016-02-29T03:39:18.505Z,0
2016-02-29T03:40:18.493Z,0
2016-02-29T03:41:18.463Z,0
2016-02-29T03:42:18.451Z,0
2016-02-29T03:43:18.424Z,0
2016-02-29T03:44:18.379Z,0
2016-02-29T03:45:18.349Z,0
2016-02-29T03:46:18.321Z,0
2016-02-29T03:47:18.340Z,0
2016-02-29T03:48:18.280Z,0
2016-02-29T03:49:18.268Z,0
2016-02-29T03:50:18.238Z,0
2016-02-29T03:51:18.195Z,0
2016-02-29T03:52:18.181Z,0
2016-02-29T03:53:18.154Z,0
2016-02-29T03:54:18.124Z,0
2016-02-29T03:55:18.112Z,0
2016-02-29T03:56:18.083Z,0
2016-02-29T03:57:18.054Z,0
2016-02-29T03:58:18.026Z,0
2016-02-29T03:59:18.013Z,0
2016-02-29T04:00:17.984Z,0
2016-02-29T04:01:17.956Z,0
2016-02-29T04:02:17.928Z,0
2016-02-29T04:03:17.915Z,0
2016-02-29T04:04:17.886Z,0
2016-02-29T04:05:17.920Z,0
2016-02-29T04:06:17.829Z,0
2016-02-29T04:07:17.784Z,0
2016-02-29T04:08:17.771Z,0
2016-02-29T04:09:17.743Z,0
2016-02-29T04:10:17.730Z,0
2016-02-29T04:11:17.716Z,0
2016-02-29T04:12:17.688Z,0
2016-02-29T04:13:17.644Z,0
2016-02-29T04:14:17.632Z,0
2016-02-29T04:15:17.759Z,0
2016-02-29T04:16:17.574Z,0
2016-02-29T04:17:17.529Z,0
2016-02-29T04:18:17.518Z,0
2016-02-29T04:19:17.488Z,0
2016-02-29T04:20:17.476Z,0
2016-02-29T04:21:17.447Z,0
2016-02-29T04:22:17.465Z,0
2016-02-29T04:23:17.390Z,0
2016-02-29T04:24:17.392Z,0
2016-02-29T04:25:17.395Z,0
2016-02-29T04:26:17.585Z,0
2016-02-29T04:27:17.276Z,0
2016-02-29T04:28:17.264Z,0
2016-02-29T04:29:17.251Z,0
2016-02-29T04:30:17.207Z,0
2016-02-29T04:31:17.194Z,0
2016-02-29T04:32:16.993Z,0
2016-02-29T04:33:17.137Z,0
2016-02-29T04:34:17.123Z,0
2016-02-29T04:35:17.080Z,0
2016-02-29T04:36:17.066Z,0
2016-02-29T04:37:17.069Z,0
2016-02-29T04:38:17.025Z,0
2016-02-29T04:39:16.996Z,0
2016-02-29T04:40:16.952Z,0
2016-02-29T04:41:16.923Z,0
2016-02-29T04:42:16.911Z,0
2016-02-29T04:43:16.898Z,0
2016-02-29T04:44:16.853Z,0
2016-02-29T04:45:16.856Z,0
2016-02-29T04:46:16.828Z,0
2016-02-29T04:47:16.783Z,0
2016-02-29T04:48:16.756Z,0
2016-02-29T04:49:16.726Z,0
2016-02-29T04:50:16.558Z,0
2016-02-29T04:51:16.685Z,0
2016-02-29T04:52:16.641Z,0
2016-02-29T04:53:16.628Z,0
2016-02-29T04:54:16.614Z,0
2016-02-29T04:55:16.571Z,0
2016-02-29T04:56:16.558Z,0
2016-02-29T04:57:16.530Z,0
2016-02-29T04:58:16.500Z,0
2016-02-29T04:59:16.488Z,0
2016-02-29T05:00:16.459Z,0
2016-02-29T05:01:16.431Z,0
2016-02-29T05:02:16.386Z,0
2016-02-29T05:03:16.358Z,0
2016-02-29T05:04:16.360Z,0
2016-02-29T05:05:16.176Z,0
2016-02-29T05:06:16.307Z,0
2016-02-29T05:07:16.262Z,0
2016-02-29T05:08:16.249Z,0
2016-02-29T05:09:16.237Z,0
2016-02-29T05:10:16.207Z,0
2016-02-29T05:11:16.179Z,0
2016-02-29T05:12:16.275Z,0
2016-02-29T05:13:16.137Z,0
2016-02-29T05:14:16.094Z,0
2016-02-29T05:15:16.065Z,0
2016-02-29T05:16:16.037Z,0
2016-02-29T05:17:16.008Z,0
2016-02-29T05:18:15.979Z,0
2016-02-29T05:19:15.966Z,0
2016-02-29T05:20:15.937Z,0
2016-02-29T05:21:15.909Z,0
2016-02-29T05:22:15.896Z,0
2016-02-29T05:23:16.133Z,0
2016-02-29T05:24:15.855Z,0
2016-02-29T05:25:15.825Z,0
2016-02-29T05:26:15.782Z,0
2016-02-29T05:27:15.675Z,0
2016-02-29T05:28:15.725Z,0
2016-02-29T05:29:15.711Z,0
2016-02-29T05:30:15.683Z,0
2016-02-29T05:31:15.654Z,0
2016-02-29T05:32:15.626Z,0
2016-02-29T05:33:15.614Z,0
2016-02-29T05:34:15.569Z,0
2016-02-29T05:35:15.557Z,0
2016-02-29T05:36:15.527Z,0
2016-02-29T05:37:15.515Z,0
2016-02-29T05:38:15.471Z,0
2016-02-29T05:39:15.489Z,0
2016-02-29T05:40:15.429Z,0
2016-02-29T05:41:15.401Z,0
2016-02-29T05:42:15.418Z,0
2016-02-29T05:43:15.360Z,0
2016-02-29T05:44:15.314Z,0
2016-02-29T05:45:15.349Z,0
2016-02-29T05:46:15.274Z,0
2016-02-29T05:47:15.245Z,0
2016-02-29T05:48:15.217Z,0
2016-02-29T05:49:15.204Z,0
2016-02-29T05:50:15.175Z,0
2016-02-29T05:51:15.146Z,0
2016-02-29T05:52:15.118Z,0
2016-02-29T05:53:15.089Z,0
2016-02-29T05:54:15.061Z,0
2016-02-29T05:55:15.029Z,0
2016-02-29T05:56:15.000Z,0
2016-02-29T05:57:15.017Z,0
2016-02-29T05:58:15.471Z,0
2016-02-29T05:59:14.956Z,4
2016-02-29T06:00:15.012Z,4
2016-02-29T06:01:18.553Z,4
2016-02-29T06:02:14.866Z,4
2016-02-29T06:03:14.822Z,4
2016-02-29T06:04:15.012Z,8
2016-02-29T06:05:14.780Z,8
2016-02-29T06:06:14.753Z,8
2016-02-29T06:07:14.724Z,12
2016-02-29T06:08:14.711Z,12
2016-02-29T06:09:14.697Z,12
2016-02-29T06:10:14.653Z,16
2016-02-29T06:11:14.625Z,16
2016-02-29T06:12:14.706Z,20
2016-02-29T06:13:14.568Z,24
2016-02-29T06:14:14.571Z,24
2016-02-29T06:15:14.823Z,28
2016-02-29T06:16:14.514Z,32
2016-02-29T06:17:14.485Z,32
2016-02-29T06:18:14.449Z,36
2016-02-29T06:19:14.421Z,40
2016-02-29T06:20:14.641Z,44
2016-02-29T06:21:14.363Z,48
2016-02-29T06:22:14.349Z,52
2016-02-29T06:23:14.321Z,52
2016-02-29T06:24:14.293Z,60
2016-02-29T06:25:14.280Z,60
2016-02-29T06:26:14.235Z,68
2016-02-29T06:27:14.113Z,72
2016-02-29T06:28:14.225Z,76
2016-02-29T06:29:14.181Z,80
2016-02-29T06:30:14.137Z,88
2016-02-29T06:31:14.124Z,92
2016-02-29T06:32:14.095Z,92
2016-02-29T06:33:14.051Z,104
2016-02-29T06:34:14.053Z,112
2016-02-29T06:35:14.009Z,116
2016-02-29T06:36:13.981Z,124
2016-02-29T06:37:13.969Z,128
2016-02-29T06:38:13.940Z,136
2016-02-29T06:39:13.911Z,136
2016-02-29T06:40:13.883Z,140
2016-02-29T06:41:13.854Z,148
2016-02-29T06:42:13.950Z,156
2016-02-29T06:43:13.797Z,164
2016-02-29T06:44:13.769Z,168
2016-02-29T06:45:13.755Z,176
2016-02-29T06:46:13.727Z,184
2016-02-29T06:47:13.713Z,192
2016-02-29T06:48:13.686Z,204
2016-02-29T06:49:13.641Z,212
2016-02-29T06:50:13.613Z,224
2016-02-29T06:51:13.599Z,240
2016-02-29T06:52:13.571Z,252
2016-02-29T06:53:13.558Z,260
2016-02-29T06:54:13.514Z,272
2016-02-29T06:55:13.485Z,280
2016-02-29T06:56:13.473Z,288
2016-02-29T06:57:13.319Z,296
2016-02-29T06:58:13.415Z,304
2016-02-29T06:59:13.387Z,316
2016-02-29T07:00:13.358Z,324
2016-02-29T07:01:13.580Z,332
2016-02-29T07:02:13.317Z,340
2016-02-29T07:03:13.304Z,344
2016-02-29T07:04:13.259Z,352
2016-02-29T07:05:13.231Z,356
2016-02-29T07:06:13.218Z,360
2016-02-29T07:07:13.205Z,368
2016-02-29T07:08:13.177Z,376
2016-02-29T07:09:13.133Z,380
2016-02-29T07:10:13.119Z,388
2016-02-29T07:11:13.091Z,400
2016-02-29T07:12:13.063Z,408
2016-02-29T07:13:13.018Z,412
2016-02-29T07:14:13.208Z,412
2016-02-29T07:15:12.977Z,420
2016-02-29T07:16:12.964Z,424
2016-02-29T07:17:13.122Z,436
2016-02-29T07:18:12.891Z,444
2016-02-29T07:19:12.878Z,448
2016-02-29T07:20:12.866Z,452
2016-02-29T07:21:12.837Z,452
2016-02-29T07:22:12.840Z,460
2016-02-29T07:23:12.779Z,460
2016-02-29T07:24:12.766Z,468
2016-02-29T07:25:12.723Z,464
2016-02-29T07:26:12.725Z,472
2016-02-29T07:27:12.682Z,476
2016-02-29T07:28:12.652Z,476
2016-02-29T07:29:12.624Z,480
2016-02-29T07:30:12.595Z,480
2016-02-29T07:31:12.582Z,488
2016-02-29T07:32:12.538Z,492
2016-02-29T07:33:12.509Z,496
2016-02-29T07:34:12.512Z,500
2016-02-29T07:35:12.453Z,504
2016-02-29T07:36:12.486Z,512
2016-02-29T07:37:12.426Z,516
2016-02-29T07:38:12.398Z,520
2016-02-29T07:39:12.385Z,528
2016-02-29T07:40:12.185Z,532
2016-02-29T07:41:12.312Z,536
2016-02-29T07:42:12.284Z,540
2016-02-29T07:43:12.317Z,544
2016-02-29T07:44:12.227Z,552
2016-02-29T07:45:12.198Z,552
2016-02-29T07:46:12.186Z,560
2016-02-29T07:47:12.157Z,564
2016-02-29T07:48:12.144Z,568
2016-02-29T07:49:12.100Z,572
2016-02-29T07:50:12.086Z,580
2016-02-29T07:51:12.074Z,584
2016-02-29T07:52:12.045Z,588
2016-02-29T07:53:12.001Z,588
2016-02-29T07:54:11.988Z,596
2016-02-29T07:55:11.960Z,600
2016-02-29T07:56:11.931Z,604
2016-02-29T07:57:11.902Z,604
2016-02-29T07:58:12.140Z,608
2016-02-29T07:59:11.877Z,616
2016-02-29T08:00:11.817Z,616
2016-02-29T08:01:11.804Z,620
2016-02-29T08:02:11.790Z,624
2016-02-29T08:03:11.950Z,628
2016-02-29T08:04:11.717Z,632
2016-02-29T08:05:11.533Z,636
2016-02-29T08:06:11.677Z,640
2016-02-29T08:07:11.648Z,648
2016-02-29T08:08:11.650Z,652
2016-02-29T08:09:11.622Z,656
2016-02-29T08:10:11.578Z,660
2016-02-29T08:11:11.550Z,664
2016-02-29T08:12:11.521Z,664
2016-02-29T08:13:11.492Z,668
2016-02-29T08:14:11.464Z,672
2016-02-29T08:15:11.450Z,680
2016-02-29T08:16:11.406Z,684
2016-02-29T08:17:11.393Z,684
2016-02-29T08:18:11.380Z,688
2016-02-29T08:19:11.336Z,696
2016-02-29T08:20:11.308Z,704
2016-02-29T08:21:11.294Z,704
2016-02-29T08:22:11.266Z,704
2016-02-29T08:23:11.237Z,708
2016-02-29T08:24:11.210Z,712
2016-02-29T08:25:11.197Z,716
2016-02-29T08:26:11.183Z,716
2016-02-29T08:27:11.140Z,724
2016-02-29T08:28:11.111Z,724
2016-02-29T08:29:11.082Z,728
2016-02-29T08:30:11.053Z,732
2016-02-29T08:31:11.040Z,736
2016-02-29T08:32:11.029Z,740
2016-02-29T08:33:10.984Z,740
2016-02-29T08:34:10.955Z,748
2016-02-29T08:35:10.926Z,756
2016-02-29T08:36:10.773Z,756
2016-02-29T08:37:10.884Z,760
2016-02-29T08:38:10.872Z,764
2016-02-29T08:39:10.843Z,768
2016-02-29T08:40:10.815Z,768
2016-02-29T08:41:10.787Z,772
2016-02-29T08:42:10.758Z,776
2016-02-29T08:43:10.745Z,784
2016-02-29T08:44:10.716Z,784
2016-02-29T08:45:10.673Z,784
2016-02-29T08:46:10.659Z,792
2016-02-29T08:47:10.631Z,792
2016-02-29T08:48:10.602Z,800
2016-02-29T08:49:10.574Z,808
2016-02-29T08:50:10.576Z,808
2016-02-29T08:51:10.766Z,808
2016-02-29T08:52:10.346Z,816
2016-02-29T08:53:10.475Z,824
2016-02-29T08:54:10.603Z,832
2016-02-29T08:55:10.433Z,828
2016-02-29T08:56:10.389Z,832
2016-02-29T08:57:10.391Z,840
2016-02-29T08:58:10.348Z,848
2016-02-29T08:59:10.334Z,844
2016-02-29T09:00:10.306Z,852
2016-02-29T09:01:10.294Z,852
2016-02-29T09:02:10.249Z,856
2016-02-29T09:03:10.237Z,856
2016-02-29T09:04:10.176Z,864
2016-02-29T09:05:10.382Z,872
2016-02-29T09:06:10.009Z,880
2016-02-29T09:07:10.137Z,880
2016-02-29T09:08:10.092Z,880
2016-02-29T09:09:10.064Z,888
2016-02-29T09:10:10.097Z,896
2016-02-29T09:11:10.069Z,892
2016-02-29T09:12:09.977Z,904
2016-02-29T09:13:09.996Z,912
2016-02-29T09:14:09.936Z,912
2016-02-29T09:15:09.939Z,920
2016-02-29T09:16:09.896Z,916
2016-02-29T09:17:09.882Z,928
2016-02-29T09:18:09.868Z,940
2016-02-29T09:19:09.825Z,944
2016-02-29T09:20:09.797Z,948
2016-02-29T09:21:09.815Z,948
2016-02-29T09:22:09.740Z,956
2016-02-29T09:23:09.695Z,964
2016-02-29T09:24:09.698Z,976
2016-02-29T09:25:09.653Z,984
2016-02-29T09:26:09.656Z,984
2016-02-29T09:27:09.597Z,992
2016-02-29T09:28:09.568Z,1000
2016-02-29T09:29:09.556Z,1004
2016-02-29T09:30:09.526Z,1004
2016-02-29T09:31:09.356Z,1004
2016-02-29T09:32:09.344Z,1016
2016-02-29T09:33:09.457Z,1016
2016-02-29T09:34:09.428Z,1024
2016-02-29T09:35:09.415Z,1024
2016-02-29T09:36:09.370Z,1036
2016-02-29T09:37:09.358Z,1048
2016-02-29T09:38:09.345Z,1056
2016-02-29T09:39:09.301Z,1056
2016-02-29T09:40:09.288Z,1052
2016-02-29T09:41:09.244Z,1052
2016-02-29T09:42:09.230Z,1068
2016-02-29T09:43:09.218Z,1076
2016-02-29T09:44:09.173Z,1080
2016-02-29T09:45:09.144Z,1088
2016-02-29T09:46:09.101Z,1096
2016-02-29T09:47:09.104Z,1100
2016-02-29T10:16:23.434Z,1280
2016-02-29T10:17:20.326Z,1288
2016-02-29T10:18:20.299Z,1296
2016-02-29T10:19:20.567Z,1296
2016-02-29T10:20:20.257Z,1308
2016-02-29T10:21:20.259Z,1316
2016-02-29T10:22:20.200Z,1336
2016-02-29T10:23:20.217Z,1356
2016-02-29T10:24:20.205Z,1364
2016-02-29T10:25:20.161Z,1368
2016-02-29T10:26:20.101Z,1376
2016-02-29T10:27:20.088Z,1368
2016-02-29T10:28:20.059Z,1380
2016-02-29T10:29:20.109Z,1404
2016-02-29T10:30:20.018Z,1412
2016-02-29T10:31:19.989Z,1436
2016-02-29T10:32:19.945Z,1448
2016-02-29T10:33:19.947Z,1432
2016-02-29T10:34:19.935Z,1452
2016-02-29T10:35:19.922Z,1464
2016-02-29T10:36:19.863Z,1492
2016-02-29T10:37:19.833Z,1492
2016-02-29T10:38:19.836Z,1508
2016-02-29T10:39:19.792Z,1516
2016-02-29T10:40:19.779Z,1512
2016-02-29T10:41:19.735Z,1544
2016-02-29T10:42:19.722Z,1556
2016-02-29T10:43:19.709Z,1576
2016-02-29T10:44:20.118Z,1584
2016-02-29T10:45:19.637Z,1612
2016-02-29T10:46:19.640Z,1588
2016-02-29T10:47:19.595Z,1652
2016-02-29T10:48:19.566Z,1660
2016-02-29T10:49:19.413Z,1632
2016-02-29T10:50:19.509Z,1676
2016-02-29T10:51:19.496Z,1728
2016-02-29T10:52:19.468Z,1744
2016-02-29T10:53:19.470Z,1684
2016-02-29T10:54:19.411Z,1756
2016-02-29T10:55:19.414Z,1792
2016-02-29T10:56:19.369Z,1800
2016-02-29T10:57:19.340Z,1832
2016-02-29T10:58:19.203Z,1880
2016-02-29T10:59:19.299Z,1896
2016-02-29T11:00:19.286Z,1864
2016-02-29T11:01:19.258Z,1968
2016-02-29T11:02:19.214Z,1912
2016-02-29T11:03:19.185Z,1916
2016-02-29T11:04:19.203Z,1984
2016-02-29T11:05:19.352Z,1912
2016-02-29T11:06:18.382Z,2108
2016-02-29T11:07:19.077Z,2036
2016-02-29T11:08:19.038Z,2040
2016-02-29T11:09:19.014Z,2048
2016-02-29T11:10:19.005Z,2168
2016-02-29T11:11:18.951Z,2092
2016-02-29T11:12:18.903Z,2084
2016-02-29T11:13:18.590Z,2184
2016-02-29T11:14:18.869Z,2204
2016-02-29T11:15:18.885Z,2216
2016-02-29T11:16:19.087Z,2192
2016-02-29T11:17:18.775Z,2204
2016-02-29T11:18:18.744Z,2132
2016-02-29T11:19:18.730Z,2180
2016-02-29T11:20:18.685Z,2268
2016-02-29T11:21:18.779Z,2156
2016-02-29T11:22:18.641Z,2280
2016-02-29T11:23:18.612Z,2268
2016-02-29T11:24:18.598Z,2308
2016-02-29T11:25:18.569Z,2376
2016-02-29T11:26:18.556Z,2340
2016-02-29T11:27:18.527Z,2408
2016-02-29T11:28:18.544Z,2368
2016-02-29T11:29:18.484Z,2280
2016-02-29T11:30:18.440Z,2204
2016-02-29T11:31:18.411Z,2124
2016-02-29T11:32:18.414Z,2600
2016-02-29T11:33:18.635Z,2688
2016-02-29T11:34:18.388Z,2772
2016-02-29T11:35:18.328Z,2668
2016-02-29T11:36:18.330Z,2596
2016-02-29T11:37:18.271Z,2664
2016-02-29T11:38:18.305Z,2704
2016-02-29T11:39:18.213Z,2136
2016-02-29T11:40:18.263Z,2360
2016-02-29T11:41:18.172Z,2620
2016-02-29T11:42:18.159Z,2012
2016-02-29T11:43:18.162Z,2412
2016-02-29T11:44:18.102Z,2244
2016-02-29T11:45:18.151Z,2552
2016-02-29T11:46:18.045Z,3024
2016-02-29T11:47:18.031Z,2920
2016-02-29T11:48:18.004Z,3024
2016-02-29T11:49:18.006Z,3084
2016-02-29T11:50:17.821Z,3024
2016-02-29T11:51:17.949Z,2200
2016-02-29T11:52:17.967Z,2448
2016-02-29T11:53:17.907Z,2560
2016-02-29T11:54:17.879Z,2648
2016-02-29T11:55:17.835Z,3368
2016-02-29T11:56:17.837Z,3328
2016-02-29T11:57:17.793Z,3092
2016-02-29T11:58:17.827Z,2456
2016-02-29T11:59:17.798Z,2672
2016-02-29T12:00:17.708Z,2516
2016-02-29T12:01:17.726Z,2556
2016-02-29T12:02:17.666Z,2648
2016-02-29T12:03:17.669Z,3388
2016-02-29T12:04:17.624Z,3116
2016-02-29T12:05:17.611Z,3240
2016-02-29T12:06:17.583Z,3316
2016-02-29T12:07:17.555Z,3572
2016-02-29T12:08:17.526Z,3384
2016-02-29T12:09:17.513Z,2348
2016-02-29T12:10:17.500Z,2684
2016-02-29T12:11:17.471Z,2308
2016-02-29T12:12:17.443Z,2360
2016-02-29T12:13:17.446Z,3120
2016-02-29T12:14:17.402Z,2964
2016-02-29T12:15:17.404Z,2972
2016-02-29T12:16:17.235Z,2944
2016-02-29T12:17:17.332Z,2812
2016-02-29T12:18:17.507Z,2700
2016-02-29T12:19:17.274Z,2612
2016-02-29T12:20:17.293Z,3296
2016-02-29T12:21:17.280Z,3132
2016-02-29T12:22:17.204Z,2780
2016-02-29T12:23:17.191Z,3556
2016-02-29T12:24:17.179Z,3824
2016-02-29T12:25:17.134Z,4084
2016-02-29T12:26:17.106Z,4640
2016-02-29T12:27:17.092Z,5400
2016-02-29T12:28:17.158Z,5304
2016-02-29T12:29:17.067Z,5428
2016-02-29T12:30:17.006Z,5388
2016-02-29T12:31:17.009Z,5600
2016-02-29T12:32:16.965Z,5192
2016-02-29T12:33:16.967Z,5344
2016-02-29T12:34:16.925Z,3612
2016-02-29T12:35:16.927Z,3576
2016-02-29T12:36:16.898Z,2568
2016-02-29T12:37:16.120Z,3100
2016-02-29T12:38:16.669Z,2680
2016-02-29T12:39:16.641Z,3868
2016-02-29T12:40:16.783Z,3956
2016-02-29T12:41:16.772Z,3424
2016-02-29T12:42:16.742Z,4388
2016-02-29T12:43:16.714Z,5268
2016-02-29T12:44:16.685Z,5152
2016-02-29T12:45:16.672Z,4592
2016-02-29T12:46:16.659Z,4604
2016-02-29T12:47:16.631Z,4600
2016-02-29T12:48:16.602Z,4100
2016-02-29T12:49:16.574Z,4064
2016-02-29T12:50:16.545Z,4020
2016-02-29T12:51:16.532Z,2900
2016-02-29T12:52:16.519Z,3516
2016-02-29T12:53:16.491Z,4460
2016-02-29T12:54:16.478Z,3496
2016-02-29T12:55:16.449Z,3208
2016-02-29T12:56:16.421Z,3632
2016-02-29T12:57:16.423Z,4444
2016-02-29T12:58:16.489Z,3372
2016-02-29T12:59:16.350Z,4536
2016-02-29T13:00:16.337Z,4624
2016-02-29T13:01:16.325Z,4516
2016-02-29T13:02:16.328Z,4552
2016-02-29T13:03:16.252Z,4212
2016-02-29T13:04:16.317Z,4252
2016-02-29T13:05:16.201Z,4564
2016-02-29T13:06:16.204Z,4384
2016-02-29T13:07:16.159Z,4512
2016-02-29T13:08:16.146Z,4880
2016-02-29T13:09:16.133Z,4036
2016-02-29T13:10:16.105Z,3460
2016-02-29T13:11:16.092Z,4276
2016-02-29T13:12:16.064Z,5440
2016-02-29T13:13:16.051Z,5416
2016-02-29T13:14:16.053Z,4636
2016-02-29T13:15:16.181Z,5852
2016-02-29T13:16:15.964Z,5196
2016-02-29T13:17:15.983Z,4424
2016-02-29T13:18:15.939Z,3332
2016-02-29T13:19:15.895Z,3364
2016-02-29T13:20:15.897Z,2764
2016-02-29T13:21:15.853Z,3316
2016-02-29T13:22:15.824Z,4548
2016-02-29T13:23:15.827Z,4336
2016-02-29T13:24:15.814Z,4484
2016-02-29T13:25:15.771Z,3944
2016-02-29T13:26:15.742Z,3224
2016-02-29T13:27:15.713Z,3800
2016-02-29T13:28:15.700Z,4336
2016-02-29T13:29:15.718Z,3920
2016-02-29T13:30:15.690Z,4080
2016-02-29T13:31:15.630Z,4016
2016-02-29T13:32:15.633Z,3748
2016-02-29T13:33:15.588Z,3596
2016-02-29T13:34:15.560Z,3680
2016-02-29T13:35:15.579Z,4132
2016-02-29T13:36:15.518Z,4172
2016-02-29T13:37:15.506Z,4208
2016-02-29T13:38:15.493Z,4200
2016-02-29T13:39:15.496Z,4208
2016-02-29T13:40:15.420Z,4380
2016-02-29T13:41:15.439Z,4372
2016-02-29T13:42:15.378Z,4212
2016-02-29T13:43:15.413Z,4232
2016-02-29T13:44:15.353Z,4172
2016-02-29T13:45:15.325Z,4264
2016-02-29T13:46:15.295Z,4208
2016-02-29T13:47:15.298Z,4128
2016-02-29T13:48:15.253Z,4008
2016-02-29T13:49:15.225Z,3176
2016-02-29T13:50:15.227Z,3580
2016-02-29T13:51:15.184Z,3848
2016-02-29T13:52:15.202Z,3900
2016-02-29T13:53:15.142Z,4024
2016-02-29T13:54:15.129Z,4256
2016-02-29T13:55:15.116Z,4180
2016-02-29T13:56:15.105Z,3740
2016-02-29T13:57:15.060Z,3252
2016-02-29T13:58:15.047Z,3628
2016-02-29T13:59:15.033Z,3564
2016-02-29T14:00:14.990Z,3700
2016-02-29T14:01:15.226Z,3792
2016-02-29T14:02:14.964Z,3780
2016-02-29T14:03:14.951Z,3676
2016-02-29T14:04:14.907Z,3644
2016-02-29T14:05:14.909Z,3628
2016-02-29T14:06:14.881Z,3632
2016-02-29T14:07:14.929Z,3636
2016-02-29T14:08:14.839Z,3612
2016-02-29T14:09:14.795Z,3568
2016-02-29T14:10:15.298Z,3652
2016-02-29T14:11:14.737Z,3632
2016-02-29T14:12:14.725Z,3536
2016-02-29T14:13:14.711Z,3364
2016-02-29T14:14:14.730Z,3212
2016-02-29T14:15:14.655Z,3304
2016-02-29T14:16:14.658Z,3324
2016-02-29T14:17:14.879Z,3416
2016-02-29T14:18:14.600Z,3400
2016-02-29T14:19:14.572Z,3388
2016-02-29T14:20:14.622Z,3356
2016-02-29T14:21:14.547Z,3328
2016-02-29T14:22:14.611Z,3332
2016-02-29T14:23:14.489Z,3276
2016-02-29T14:24:14.569Z,3232
2016-02-29T14:25:14.447Z,3220
2016-02-29T14:26:14.434Z,3168
2016-02-29T14:27:14.453Z,3276
2016-02-29T14:28:14.393Z,3256
2016-02-29T14:29:14.364Z,3296
2016-02-29T14:30:14.351Z,3336